createdAt,value
2019-02-28T00:01:46.445Z,12.60
2019-02-28T00:04:16.534Z,14.50
2019-02-28T00:06:46.871Z,15.63
2019-02-28T00:09:17.410Z,16.20
2019-02-28T00:11:47.670Z,15.37
2019-02-28T00:14:18.403Z,12.23
2019-02-28T00:16:48.467Z,14.57
2019-02-28T00:19:18.036Z,14.00
2019-02-28T00:21:48.739Z,14.37
2019-02-28T00:24:19.063Z,14.20
2019-02-28T00:26:49.510Z,14.33
2019-02-28T00:29:19.945Z,13.87
2019-02-28T00:31:50.790Z,14.47
2019-02-28T00:34:21.185Z,13.73
2019-02-28T00:36:53.453Z,13.73
2019-02-28T00:39:26.151Z,16.43
2019-02-28T00:41:57.352Z,16.83
2019-02-28T00:44:31.237Z,18.13
2019-02-28T00:47:00.298Z,14.93
2019-02-28T00:49:30.783Z,15.63
2019-02-28T00:52:03.425Z,15.87
2019-02-28T00:54:34.091Z,18.43
2019-02-28T00:57:04.419Z,16.77
2019-02-28T00:59:35.055Z,14.53
2019-02-28T01:02:04.795Z,14.33
2019-02-28T01:04:34.815Z,14.47
2019-02-28T01:07:05.203Z,16.20
2019-02-28T01:09:35.287Z,15.80
2019-02-28T01:12:05.911Z,16.97
2019-02-28T01:14:36.677Z,14.43
2019-02-28T01:17:07.240Z,16.60
2019-02-28T01:19:41.305Z,14.47
2019-02-28T01:22:09.636Z,14.77
2019-02-28T01:24:39.697Z,14.17
2019-02-28T01:27:09.643Z,15.17
2019-02-28T01:29:39.738Z,14.97
2019-02-28T01:32:10.213Z,15.53
2019-02-28T01:34:40.573Z,13.70
2019-02-28T01:37:12.238Z,14.97
2019-02-28T01:39:41.935Z,13.67
2019-02-28T01:42:13.092Z,14.17
2019-02-28T01:44:43.615Z,14.07
2019-02-28T01:47:13.650Z,13.57
2019-02-28T01:49:44.944Z,14.50
2019-02-28T01:52:15.602Z,16.97
2019-02-28T01:54:45.609Z,14.80
2019-02-28T01:57:15.868Z,14.40
2019-02-28T01:59:47.046Z,16.47
2019-02-28T02:02:17.932Z,13.57
2019-02-28T02:04:48.891Z,15.10
2019-02-28T02:07:20.845Z,15.60
2019-02-28T02:09:51.741Z,13.43
2019-02-28T02:12:22.473Z,12.73
2019-02-28T02:14:57.026Z,16.10
2019-02-28T02:17:27.662Z,13.60
2019-02-28T02:19:58.307Z,14.93
2019-02-28T02:22:28.445Z,14.77
2019-02-28T02:25:03.077Z,13.20
2019-02-28T02:27:34.041Z,11.83
2019-02-28T02:30:15.268Z,14.33
2019-02-28T02:32:41.982Z,11.57
2019-02-28T02:35:11.679Z,11.63
2019-02-28T02:37:41.999Z,12.43
2019-02-28T02:40:13.171Z,13.90
2019-02-28T02:42:47.272Z,11.00
2019-02-28T02:45:15.792Z,13.73
2019-02-28T02:47:46.585Z,11.67
2019-02-28T02:50:17.697Z,14.60
2019-02-28T02:52:48.624Z,12.83
2019-02-28T02:55:18.358Z,13.37
2019-02-28T02:57:51.682Z,15.50
2019-02-28T03:00:20.577Z,13.27
2019-02-28T03:02:50.575Z,12.30
2019-02-28T03:05:21.391Z,14.83
2019-02-28T03:07:51.975Z,13.53
2019-02-28T03:10:22.227Z,12.93
2019-02-28T03:12:51.899Z,12.50
2019-02-28T03:15:26.991Z,10.50
2019-02-28T03:17:54.423Z,14.07
2019-02-28T03:20:24.437Z,12.87
2019-02-28T03:22:55.879Z,13.67
2019-02-28T03:25:28.273Z,13.50
2019-02-28T03:27:58.548Z,11.40
2019-02-28T03:30:32.895Z,11.27
2019-02-28T03:33:00.677Z,11.90
2019-02-28T03:35:40.558Z,11.10
2019-02-28T03:38:10.184Z,11.73
2019-02-28T03:40:39.741Z,10.80
2019-02-28T03:43:09.351Z,12.13
2019-02-28T03:45:41.017Z,11.60
2019-02-28T03:48:11.335Z,11.57
2019-02-28T03:50:42.003Z,13.00
2019-02-28T03:53:19.604Z,13.57
2019-02-28T03:55:43.960Z,13.37
2019-02-28T03:58:13.778Z,11.93
2019-02-28T04:00:44.162Z,13.13
2019-02-28T04:03:15.213Z,12.10
2019-02-28T04:05:45.676Z,12.73
2019-02-28T04:08:16.388Z,12.27
2019-02-28T04:10:46.388Z,11.23
2019-02-28T04:13:19.260Z,11.20
2019-02-28T04:16:07.670Z,11.30
2019-02-28T04:18:22.605Z,13.13
2019-02-28T04:20:52.821Z,12.20
2019-02-28T04:23:23.589Z,10.00
2019-02-28T04:25:56.789Z,12.97
2019-02-28T04:28:25.352Z,12.57
2019-02-28T04:30:55.560Z,11.43
2019-02-28T04:33:25.885Z,10.73
2019-02-28T04:35:56.813Z,12.27
2019-02-28T04:38:28.436Z,10.53
2019-02-28T04:40:59.031Z,12.47
2019-02-28T04:43:30.313Z,12.67
2019-02-28T04:46:00.519Z,12.53
2019-02-28T04:48:31.054Z,11.77
2019-02-28T04:51:02.275Z,11.37
2019-02-28T04:53:32.343Z,11.40
2019-02-28T04:56:03.246Z,14.50
2019-02-28T04:58:32.933Z,10.90
2019-02-28T05:01:04.514Z,11.53
2019-02-28T05:03:34.706Z,11.63
2019-02-28T05:06:04.890Z,12.07
2019-02-28T05:08:38.621Z,12.63
2019-02-28T05:11:08.083Z,11.50
2019-02-28T05:13:38.269Z,14.03
2019-02-28T05:16:09.378Z,11.60
2019-02-28T05:18:41.206Z,12.70
2019-02-28T05:21:11.426Z,13.07
2019-02-28T05:23:42.504Z,11.27
2019-02-28T05:26:13.011Z,9.30
2019-02-28T05:28:44.771Z,13.40
2019-02-28T05:31:15.254Z,12.23
2019-02-28T05:33:46.247Z,12.27
2019-02-28T05:36:18.152Z,13.70
2019-02-28T05:38:48.426Z,14.07
2019-02-28T05:41:18.483Z,11.33
2019-02-28T05:43:48.738Z,9.90
2019-02-28T05:46:20.339Z,10.23
2019-02-28T05:48:50.641Z,14.07
2019-02-28T05:51:20.828Z,13.13
2019-02-28T05:53:51.579Z,10.60
2019-02-28T05:56:26.313Z,11.60
2019-02-28T05:58:56.777Z,12.00
2019-02-28T06:01:28.751Z,11.87
2019-02-28T06:04:02.913Z,12.13
2019-02-28T06:06:32.444Z,12.53
2019-02-28T06:09:04.922Z,10.63
2019-02-28T06:11:35.935Z,12.73
2019-02-28T06:14:06.523Z,13.57
2019-02-28T06:16:38.776Z,11.80
2019-02-28T06:19:09.340Z,11.70
2019-02-28T06:21:39.649Z,12.37
2019-02-28T06:24:12.727Z,14.07
2019-02-28T06:26:44.101Z,13.27
2019-02-28T06:29:14.938Z,13.57
2019-02-28T06:31:45.413Z,15.53
2019-02-28T06:34:17.340Z,13.57
2019-02-28T06:36:52.392Z,13.10
2019-02-28T06:39:26.839Z,15.30
2019-02-28T06:41:58.498Z,12.63
2019-02-28T06:44:29.081Z,14.03
2019-02-28T06:46:59.237Z,14.60
2019-02-28T06:49:30.081Z,15.17
2019-02-28T06:52:00.526Z,14.57
2019-02-28T06:54:30.918Z,11.60
2019-02-28T06:57:00.967Z,14.10
2019-02-28T06:59:30.596Z,12.57
2019-02-28T07:02:01.184Z,17.53
2019-02-28T07:04:31.935Z,12.83
2019-02-28T07:07:03.241Z,11.27
2019-02-28T07:09:36.436Z,9.23
2019-02-28T07:12:08.254Z,11.77
2019-02-28T07:14:38.860Z,15.50
2019-02-28T07:19:53.704Z,9.83
2019-02-28T07:22:25.559Z,9.67
2019-02-28T07:24:57.411Z,10.77
2019-02-28T07:27:29.718Z,9.00
2019-02-28T07:29:59.393Z,11.60
2019-02-28T07:32:34.005Z,12.17
2019-02-28T07:35:02.851Z,43.80
2019-02-28T07:37:33.579Z,14.90
2019-02-28T07:40:03.427Z,11.77
2019-02-28T07:42:37.624Z,10.47
2019-02-28T07:45:08.473Z,11.60
2019-02-28T07:47:39.058Z,10.83
2019-02-28T07:50:12.092Z,10.90
2019-02-28T07:52:42.568Z,11.73
2019-02-28T07:55:13.125Z,13.53
2019-02-28T07:57:43.893Z,10.40
2019-02-28T08:00:18.647Z,10.47
2019-02-28T08:02:51.899Z,9.37
2019-02-28T08:05:23.268Z,12.77
2019-02-28T08:07:54.652Z,9.43
2019-02-28T08:10:26.773Z,11.33
2019-02-28T08:12:56.969Z,9.20
2019-02-28T08:15:29.547Z,11.27
2019-02-28T08:18:01.508Z,10.53
2019-02-28T08:20:33.944Z,11.50
2019-02-28T08:23:04.073Z,9.67
2019-02-28T08:25:33.813Z,9.23
2019-02-28T08:28:06.047Z,11.17
2019-02-28T08:30:36.599Z,10.00
2019-02-28T08:33:07.774Z,11.33
2019-02-28T08:35:39.526Z,9.70
2019-02-28T08:38:11.957Z,11.07
2019-02-28T08:40:43.737Z,13.30
2019-02-28T08:43:16.441Z,12.63
2019-02-28T08:45:46.939Z,12.77
2019-02-28T08:48:17.473Z,13.10
2019-02-28T08:50:49.163Z,14.37
2019-02-28T08:53:21.971Z,11.67
2019-02-28T08:55:52.355Z,15.67
2019-02-28T08:58:22.686Z,14.07
2019-02-28T09:00:53.105Z,15.90
2019-02-28T09:03:27.403Z,10.57
2019-02-28T09:05:56.880Z,11.17
2019-02-28T09:08:30.140Z,11.63
2019-02-28T09:11:03.602Z,13.23
2019-02-28T09:13:34.118Z,12.53
2019-02-28T09:16:05.076Z,10.50
2019-02-28T09:18:38.198Z,9.67
2019-02-28T09:21:09.530Z,11.20
2019-02-28T09:23:41.730Z,12.03
2019-02-28T09:26:12.312Z,9.77
2019-02-28T09:28:44.422Z,11.57
2019-02-28T09:31:15.478Z,12.47
2019-02-28T09:33:46.707Z,12.03
2019-02-28T09:36:20.582Z,11.50
2019-02-28T09:38:56.800Z,15.00
2019-02-28T09:41:23.584Z,15.00
2019-02-28T09:43:56.907Z,17.37
2019-02-28T09:46:26.581Z,14.57
2019-02-28T09:48:57.369Z,15.33
2019-02-28T09:51:31.714Z,19.30
2019-02-28T09:53:59.892Z,16.87
2019-02-28T09:56:30.057Z,18.13
2019-02-28T09:59:03.980Z,18.37
2019-02-28T10:01:37.225Z,16.67
2019-02-28T10:04:12.769Z,16.47
2019-02-28T10:06:43.766Z,13.90
2019-02-28T10:09:17.118Z,19.30
2019-02-28T10:11:48.022Z,16.73
2019-02-28T10:14:18.772Z,17.77
2019-02-28T10:16:52.547Z,12.57
2019-02-28T10:19:22.425Z,14.70
2019-02-28T10:21:54.303Z,19.17
2019-02-28T10:24:24.816Z,18.20
2019-02-28T10:26:55.836Z,14.07
2019-02-28T10:29:26.875Z,12.93
2019-02-28T10:31:57.775Z,14.07
2019-02-28T10:34:28.650Z,15.10
2019-02-28T10:36:59.255Z,15.00
2019-02-28T10:39:31.506Z,14.13
2019-02-28T10:42:04.999Z,16.70
2019-02-28T10:44:35.538Z,12.57
2019-02-28T10:47:07.711Z,14.23
2019-02-28T10:49:39.261Z,14.13
2019-02-28T10:52:09.822Z,15.50
2019-02-28T10:54:41.543Z,13.03
2019-02-28T10:57:11.966Z,14.73
2019-02-28T10:59:43.715Z,17.37
2019-02-28T11:02:19.751Z,26.87
2019-02-28T11:04:50.834Z,17.37
2019-02-28T11:07:21.873Z,12.97
2019-02-28T11:09:55.631Z,13.67
2019-02-28T11:12:28.458Z,15.87
2019-02-28T11:14:59.892Z,14.40
2019-02-28T11:17:34.232Z,15.97
2019-02-28T11:20:07.067Z,15.93
2019-02-28T11:22:40.964Z,12.23
2019-02-28T11:25:11.877Z,14.03
2019-02-28T11:27:49.872Z,14.13
2019-02-28T11:30:21.724Z,14.63
2019-02-28T11:32:55.927Z,14.10
2019-02-28T11:35:35.659Z,13.60
2019-02-28T11:38:09.566Z,16.07
2019-02-28T11:40:44.566Z,12.87
2019-02-28T11:43:20.594Z,13.37
2019-02-28T11:45:51.365Z,13.47
2019-02-28T11:48:28.701Z,14.40
2019-02-28T11:51:06.738Z,13.50
2019-02-28T11:53:40.303Z,11.00
2019-02-28T11:56:11.577Z,14.87
2019-02-28T11:58:51.554Z,12.13
2019-02-28T12:01:23.265Z,12.07
2019-02-28T12:03:54.948Z,12.17
2019-02-28T12:06:25.642Z,14.33
2019-02-28T12:09:00.099Z,10.77
2019-02-28T12:11:36.451Z,12.95
2019-02-28T12:14:11.864Z,10.53
2019-02-28T12:22:58.455Z,14.57
2019-02-28T12:25:29.669Z,11.80
2019-02-28T12:28:06.322Z,12.53
2019-02-28T12:30:37.646Z,12.77
2019-02-28T12:33:08.709Z,10.93
2019-02-28T12:35:40.585Z,12.67
2019-02-28T12:38:12.875Z,11.57
2019-02-28T12:40:45.631Z,11.70
2019-02-28T12:43:17.637Z,11.37
2019-02-28T12:45:50.143Z,11.50
2019-02-28T12:48:20.637Z,10.73
2019-02-28T12:50:52.019Z,10.40
2019-02-28T12:53:25.319Z,14.73
2019-02-28T12:55:58.353Z,11.00
2019-02-28T12:58:38.860Z,10.63
2019-02-28T13:01:02.734Z,10.72
2019-02-28T13:03:34.450Z,12.85
2019-02-28T13:06:07.951Z,13.13
2019-02-28T13:08:41.645Z,12.55
2019-02-28T13:11:11.399Z,12.30
2019-02-28T13:13:42.603Z,11.63
2019-02-28T13:16:17.427Z,14.47
2019-02-28T13:18:53.016Z,11.75
2019-02-28T13:21:24.550Z,14.53
2019-02-28T13:23:55.616Z,11.20
2019-02-28T13:26:30.523Z,16.87
2019-02-28T13:29:02.843Z,13.68
2019-02-28T13:31:35.558Z,18.40
2019-02-28T13:34:07.306Z,12.53
2019-02-28T13:36:38.321Z,14.33
2019-02-28T13:39:09.873Z,13.05
2019-02-28T13:41:40.960Z,16.30
2019-02-28T13:44:11.724Z,15.63
2019-02-28T13:46:42.940Z,13.13
2019-02-28T13:49:15.619Z,14.73
2019-02-28T13:52:06.249Z,15.18
2019-02-28T13:54:38.123Z,16.23
2019-02-28T13:57:10.194Z,15.90
2019-02-28T13:59:41.175Z,15.93
2019-02-28T14:02:13.646Z,15.23
2019-02-28T14:04:44.101Z,15.93
2019-02-28T14:07:15.241Z,14.90
2019-02-28T14:09:46.195Z,15.57
2019-02-28T14:12:20.771Z,18.73
2019-02-28T14:14:52.822Z,18.55
2019-02-28T14:17:25.486Z,17.27
2019-02-28T14:19:57.617Z,16.75
2019-02-28T14:22:28.637Z,19.70
2019-02-28T14:25:05.167Z,15.85
2019-02-28T14:27:32.895Z,17.25
2019-02-28T14:30:04.347Z,14.75
2019-02-28T14:32:38.694Z,17.52
2019-02-28T14:35:08.786Z,16.48
2019-02-28T14:37:40.872Z,17.63
2019-02-28T14:40:14.621Z,16.70
2019-02-28T14:42:49.117Z,16.57
2019-02-28T14:45:21.432Z,16.25
2019-02-28T14:47:57.032Z,18.40
2019-02-28T14:50:25.579Z,16.25
2019-02-28T14:52:57.711Z,15.98
2019-02-28T14:55:32.497Z,15.50
2019-02-28T14:58:10.890Z,16.63
2019-02-28T15:00:43.482Z,18.92
2019-02-28T15:03:26.630Z,16.27
2019-02-28T15:05:57.912Z,16.77
2019-02-28T15:08:29.194Z,16.02
2019-02-28T15:10:59.721Z,16.73
2019-02-28T15:13:33.445Z,16.48
2019-02-28T15:16:05.632Z,17.17
2019-02-28T15:18:38.422Z,14.78
2019-02-28T15:21:09.127Z,16.07
2019-02-28T15:23:40.143Z,16.95
2019-02-28T15:26:12.036Z,15.53
2019-02-28T15:28:45.573Z,14.40
2019-02-28T15:31:17.189Z,17.40
2019-02-28T15:33:50.589Z,13.93
2019-02-28T15:36:24.273Z,14.18
2019-02-28T15:38:54.309Z,15.83
2019-02-28T15:41:26.359Z,15.28
2019-02-28T15:43:57.873Z,13.03
2019-02-28T15:46:32.199Z,11.68
2019-02-28T15:49:06.450Z,11.83
2019-02-28T15:51:37.429Z,9.48
2019-02-28T15:54:09.118Z,10.75
2019-02-28T15:56:39.887Z,8.68
2019-02-28T15:59:15.634Z,10.15
2019-02-28T16:01:46.664Z,7.03
2019-02-28T16:04:18.365Z,8.70
2019-02-28T16:06:56.662Z,8.80
2019-02-28T16:09:27.294Z,7.47
2019-02-28T16:11:58.634Z,8.95
2019-02-28T16:14:34.739Z,8.23
2019-02-28T16:17:07.444Z,8.25
2019-02-28T16:19:39.983Z,8.98
2019-02-28T16:22:14.639Z,7.90
2019-02-28T16:24:45.136Z,7.97
2019-02-28T16:27:17.065Z,9.38
2019-02-28T16:29:47.872Z,9.25
2019-02-28T16:32:39.731Z,12.85
2019-02-28T16:35:14.740Z,10.03
2019-02-28T16:37:48.053Z,10.98
2019-02-28T16:40:27.682Z,11.75
2019-02-28T16:43:00.552Z,12.35
2019-02-28T16:45:33.712Z,15.57
2019-02-28T16:48:06.864Z,14.15
2019-02-28T16:50:38.630Z,11.60
2019-02-28T16:53:14.995Z,13.60
2019-02-28T16:55:41.977Z,10.67
2019-02-28T16:58:12.773Z,12.87
2019-02-28T17:00:46.352Z,12.83
2019-02-28T17:03:18.389Z,12.47
2019-02-28T17:05:54.794Z,15.03
2019-02-28T17:08:26.965Z,14.03
2019-02-28T17:10:58.264Z,14.10
2019-02-28T17:13:38.747Z,14.40
2019-02-28T17:16:26.253Z,13.40
2019-02-28T17:18:57.444Z,15.03
2019-02-28T17:21:29.828Z,11.33
2019-02-28T17:24:02.002Z,12.47
2019-02-28T17:26:55.491Z,15.10
2019-02-28T17:29:34.221Z,12.63
2019-02-28T17:32:05.859Z,13.03
2019-02-28T17:34:38.296Z,14.10
2019-02-28T17:37:10.417Z,12.67
2019-02-28T17:39:40.685Z,15.73
2019-02-28T17:42:14.803Z,14.63
2019-02-28T17:45:17.331Z,14.63
2019-02-28T17:48:19.483Z,14.50
2019-02-28T17:51:18.836Z,13.43
2019-02-28T17:54:12.096Z,13.40
2019-02-28T17:57:37.982Z,13.43
2019-02-28T18:00:51.981Z,12.17
2019-02-28T18:04:27.166Z,15.63
2019-02-28T18:07:12.780Z,18.30
2019-02-28T18:10:10.722Z,13.87
2019-02-28T18:13:23.449Z,13.57
2019-02-28T18:16:00.449Z,13.70
2019-02-28T18:19:09.273Z,11.77
2019-02-28T18:21:54.062Z,12.17
2019-02-28T18:25:10.118Z,12.83
2019-02-28T18:28:18.839Z,10.73
2019-02-28T18:31:19.109Z,14.67
2019-02-28T18:33:52.351Z,13.10
2019-02-28T18:36:27.223Z,12.97
2019-02-28T18:38:59.146Z,11.57
2019-02-28T18:41:29.658Z,11.43
2019-02-28T18:44:03.666Z,11.90
2019-02-28T18:46:35.378Z,12.77
2019-02-28T18:49:05.907Z,11.87
2019-02-28T18:51:38.965Z,10.50
2019-02-28T18:54:10.200Z,12.27
2019-02-28T18:56:41.285Z,10.73
2019-02-28T18:59:12.227Z,12.30
2019-02-28T19:01:43.021Z,10.87
2019-02-28T19:04:13.137Z,11.10
2019-02-28T19:06:44.517Z,10.90
2019-02-28T19:09:21.173Z,13.23
2019-02-28T19:11:53.743Z,10.00
2019-02-28T19:14:25.992Z,10.37
2019-02-28T19:16:57.823Z,9.60
2019-02-28T19:19:28.803Z,12.80
2019-02-28T19:22:00.215Z,12.07
2019-02-28T19:24:31.875Z,9.57
2019-02-28T19:27:02.382Z,10.87
2019-02-28T19:29:32.782Z,11.47
2019-02-28T19:32:03.512Z,10.40
2019-02-28T19:34:34.253Z,9.07
2019-02-28T19:37:04.628Z,9.43
2019-02-28T19:39:35.761Z,11.30
2019-02-28T19:42:06.246Z,11.53
2019-02-28T19:44:37.182Z,8.57
2019-02-28T19:47:07.858Z,10.37
2019-02-28T19:49:38.787Z,8.70
2019-02-28T19:52:09.963Z,9.07
2019-02-28T19:54:42.670Z,10.03
2019-02-28T19:57:14.993Z,11.17
2019-02-28T19:59:47.478Z,8.30
2019-02-28T20:02:19.381Z,8.90
2019-02-28T20:04:49.860Z,8.17
2019-02-28T20:07:21.016Z,11.27
2019-02-28T20:09:51.578Z,7.10
2019-02-28T20:12:23.754Z,8.13
2019-02-28T20:14:54.552Z,8.57
2019-02-28T20:17:25.069Z,6.83
2019-02-28T20:19:55.640Z,6.90
2019-02-28T20:22:27.166Z,9.10
2019-02-28T20:24:58.020Z,9.83
2019-02-28T20:27:28.550Z,7.67
2019-02-28T20:29:59.367Z,6.00
2019-02-28T20:32:30.238Z,9.93
2019-02-28T20:35:02.442Z,8.70
2019-02-28T20:37:33.777Z,6.93
2019-02-28T20:40:04.908Z,6.83
2019-02-28T20:42:36.553Z,8.20
2019-02-28T20:45:10.779Z,8.87
2019-02-28T20:47:41.408Z,8.77
2019-02-28T20:50:18.162Z,7.50
2019-02-28T20:52:48.747Z,9.97
2019-02-28T20:55:20.406Z,6.63
2019-02-28T20:57:51.807Z,8.07
2019-02-28T21:00:24.190Z,4.87
2019-02-28T21:02:55.941Z,7.37
2019-02-28T21:05:26.419Z,5.27
2019-02-28T21:07:57.926Z,7.13
2019-02-28T21:10:28.398Z,6.47
2019-02-28T21:13:00.594Z,7.10
2019-02-28T21:15:31.055Z,6.47
2019-02-28T21:18:01.465Z,6.83
2019-02-28T21:20:31.848Z,6.50
2019-02-28T21:23:03.854Z,6.30
2019-02-28T21:25:36.570Z,5.50
2019-02-28T21:28:07.651Z,5.87
2019-02-28T21:30:38.071Z,5.03
2019-02-28T21:33:07.847Z,4.73
2019-02-28T21:35:38.400Z,4.83
2019-02-28T21:38:09.422Z,4.13
2019-02-28T21:40:40.223Z,6.57
2019-02-28T21:43:11.887Z,5.30
2019-02-28T21:45:42.485Z,6.00
2019-02-28T21:48:17.227Z,5.50
2019-02-28T21:50:47.739Z,3.07
2019-02-28T21:53:18.529Z,4.80
2019-02-28T21:55:50.655Z,7.87
2019-02-28T21:58:22.105Z,5.50
2019-02-28T22:00:56.510Z,4.77
2019-02-28T22:03:27.977Z,5.83
2019-02-28T22:05:58.667Z,4.30
2019-02-28T22:08:36.642Z,6.03
2019-02-28T22:11:06.942Z,4.90
2019-02-28T22:13:37.715Z,4.67
2019-02-28T22:16:08.083Z,3.97
2019-02-28T22:18:42.033Z,6.67
2019-02-28T22:21:12.381Z,6.43
2019-02-28T22:23:45.519Z,10.10
2019-02-28T22:26:15.929Z,5.27
2019-02-28T22:28:48.552Z,6.77
2019-02-28T22:31:40.441Z,6.93
2019-02-28T22:34:24.118Z,5.13
2019-02-28T22:36:54.672Z,5.40
2019-02-28T22:39:27.083Z,5.97
2019-02-28T22:41:57.457Z,4.33
2019-02-28T22:44:28.485Z,5.10
2019-02-28T22:46:58.892Z,3.67
2019-02-28T22:49:31.160Z,3.27
2019-02-28T22:52:01.914Z,3.07
2019-02-28T22:54:32.700Z,3.57
2019-02-28T22:57:03.058Z,4.20
2019-02-28T22:59:34.286Z,3.77
2019-02-28T23:02:06.292Z,3.37
2019-02-28T23:04:37.028Z,3.23
2019-02-28T23:07:07.413Z,6.23
2019-02-28T23:09:38.821Z,2.67
2019-02-28T23:12:09.442Z,2.77
2019-02-28T23:14:40.054Z,4.80
2019-02-28T23:17:10.612Z,3.17
2019-02-28T23:19:42.320Z,3.37
2019-02-28T23:22:12.697Z,4.23
2019-02-28T23:24:43.293Z,3.70
2019-02-28T23:27:18.120Z,2.53
2019-02-28T23:30:01.192Z,4.27
2019-02-28T23:32:39.299Z,3.60
2019-02-28T23:35:16.387Z,3.53
2019-02-28T23:37:46.769Z,3.13
2019-02-28T23:40:17.033Z,3.40
2019-02-28T23:42:47.432Z,5.40
2019-02-28T23:45:17.716Z,4.60
2019-02-28T23:47:48.492Z,5.30
2019-02-28T23:50:18.793Z,4.67
2019-02-28T23:52:49.344Z,5.37
2019-02-28T23:55:19.982Z,3.10
2019-02-28T23:57:50.526Z,2.53
